createdAt,value
2017-04-14T00:00:14.162Z,0
2017-04-14T00:01:13.812Z,0
2017-04-14T00:02:14.111Z,0
2017-04-14T00:03:13.770Z,0
2017-04-14T00:04:14.073Z,0
2017-04-14T00:05:14.062Z,0
2017-04-14T00:06:14.019Z,0
2017-04-14T00:07:13.732Z,0
2017-04-14T00:08:13.982Z,0
2017-04-14T00:09:13.663Z,0
2017-04-14T00:10:13.311Z,0
2017-04-14T00:11:13.671Z,0
2017-04-14T00:12:13.591Z,0
2017-04-14T00:13:13.867Z,0
2017-04-14T00:14:12.921Z,0
2017-04-14T00:15:13.911Z,0
2017-04-14T00:16:13.472Z,0
2017-04-14T00:17:13.466Z,0
2017-04-14T00:18:13.443Z,0
2017-04-14T00:19:13.821Z,0
2017-04-14T00:20:13.701Z,0
2017-04-14T00:21:13.382Z,0
2017-04-14T00:22:13.770Z,0
2017-04-14T00:23:13.631Z,0
2017-04-14T00:24:13.303Z,0
2017-04-14T00:25:13.340Z,0
2017-04-14T00:26:13.271Z,0
2017-04-14T00:27:13.249Z,0
2017-04-14T00:28:12.921Z,0
2017-04-14T00:29:13.188Z,0
2017-04-14T00:30:12.866Z,0
2017-04-14T00:31:13.468Z,0
2017-04-14T00:32:13.432Z,0
2017-04-14T00:33:13.104Z,0
2017-04-14T00:34:13.384Z,0
2017-04-14T00:35:13.390Z,0
2017-04-14T00:36:12.727Z,0
2017-04-14T00:37:13.334Z,0
2017-04-14T00:38:12.693Z,0
2017-04-14T00:39:12.974Z,0
2017-04-14T00:40:12.951Z,0
2017-04-14T00:41:12.951Z,0
2017-04-14T00:42:12.609Z,0
2017-04-14T00:43:13.212Z,0
2017-04-14T00:44:12.865Z,0
2017-04-14T00:45:13.158Z,0
2017-04-14T00:46:12.509Z,0
2017-04-14T00:47:13.115Z,0
2017-04-14T00:48:13.089Z,0
2017-04-14T00:49:12.486Z,0
2017-04-14T00:50:12.775Z,0
2017-04-14T00:51:12.702Z,0
2017-04-14T00:52:12.395Z,0
2017-04-14T00:53:12.731Z,0
2017-04-14T00:54:12.395Z,0
2017-04-14T00:55:12.621Z,0
2017-04-14T00:56:12.641Z,0
2017-04-14T00:57:12.602Z,0
2017-04-14T00:58:12.600Z,0
2017-04-14T00:59:12.283Z,0
2017-04-14T01:00:12.216Z,0
2017-04-14T01:01:12.188Z,0
2017-04-14T01:02:12.781Z,0
2017-04-14T01:03:12.250Z,0
2017-04-14T01:04:12.432Z,0
2017-04-14T01:05:12.404Z,0
2017-04-14T01:06:12.704Z,0
2017-04-14T01:07:12.472Z,0
2017-04-14T01:08:12.416Z,0
2017-04-14T01:09:12.442Z,0
2017-04-14T01:10:12.324Z,0
2017-04-14T01:11:12.271Z,0
2017-04-14T01:12:12.254Z,0
2017-04-14T01:13:12.234Z,0
2017-04-14T01:14:12.202Z,0
2017-04-14T01:15:12.481Z,0
2017-04-14T01:16:12.202Z,0
2017-04-14T01:17:12.453Z,0
2017-04-14T01:18:12.431Z,0
2017-04-14T01:19:12.128Z,0
2017-04-14T01:20:12.382Z,0
2017-04-14T01:21:12.035Z,0
2017-04-14T01:22:12.349Z,0
2017-04-14T01:23:12.298Z,0
2017-04-14T01:24:11.983Z,0
2017-04-14T01:25:12.281Z,0
2017-04-14T01:26:12.265Z,0
2017-04-14T01:27:12.240Z,0
2017-04-14T01:28:12.214Z,0
2017-04-14T01:29:12.173Z,0
2017-04-14T01:30:12.176Z,0
2017-04-14T01:31:12.131Z,0
2017-04-14T01:32:12.113Z,0
2017-04-14T01:33:11.494Z,0
2017-04-14T01:34:12.062Z,0
2017-04-14T01:35:11.731Z,0
2017-04-14T01:36:12.043Z,0
2017-04-14T01:37:11.686Z,0
2017-04-14T01:38:11.362Z,0
2017-04-14T01:39:11.954Z,0
2017-04-14T01:40:11.692Z,0
2017-04-14T01:41:11.968Z,0
2017-04-14T01:42:11.944Z,0
2017-04-14T01:43:11.903Z,0
2017-04-14T01:44:11.862Z,0
2017-04-14T01:45:11.203Z,0
2017-04-14T01:46:11.501Z,0
2017-04-14T01:47:11.954Z,0
2017-04-14T01:48:11.763Z,0
2017-04-14T01:49:11.110Z,0
2017-04-14T01:50:11.111Z,0
2017-04-14T01:51:11.391Z,0
2017-04-14T01:52:11.340Z,0
2017-04-14T01:53:11.710Z,0
2017-04-14T01:54:11.001Z,0
2017-04-14T01:55:11.090Z,0
2017-04-14T01:56:11.302Z,0
2017-04-14T01:57:10.951Z,0
2017-04-14T01:58:11.204Z,0
2017-04-14T01:59:11.540Z,0
2017-04-14T02:00:10.860Z,0
2017-04-14T02:01:11.162Z,0
2017-04-14T02:02:10.832Z,0
2017-04-14T02:03:11.092Z,0
2017-04-14T02:04:11.080Z,0
2017-04-14T02:05:11.053Z,0
2017-04-14T02:06:11.080Z,0
2017-04-14T02:07:11.062Z,0
2017-04-14T02:08:11.285Z,0
2017-04-14T02:09:11.293Z,0
2017-04-14T02:10:10.952Z,0
2017-04-14T02:11:11.221Z,0
2017-04-14T02:12:10.950Z,0
2017-04-14T02:13:11.221Z,0
2017-04-14T02:14:10.871Z,0
2017-04-14T02:15:11.336Z,0
2017-04-14T02:16:11.123Z,0
2017-04-14T02:17:10.809Z,0
2017-04-14T02:18:10.543Z,0
2017-04-14T02:19:10.760Z,0
2017-04-14T02:20:11.120Z,0
2017-04-14T02:21:10.129Z,0
2017-04-14T02:22:10.380Z,0
2017-04-14T02:23:11.061Z,0
2017-04-14T02:24:10.736Z,0
2017-04-14T02:25:11.002Z,0
2017-04-14T02:26:10.940Z,0
2017-04-14T02:27:10.254Z,0
2017-04-14T02:28:10.909Z,0
2017-04-14T02:29:10.841Z,0
2017-04-14T02:30:10.603Z,0
2017-04-14T02:31:10.140Z,0
2017-04-14T02:32:10.135Z,0
2017-04-14T02:33:09.813Z,0
2017-04-14T02:34:10.436Z,0
2017-04-14T02:35:10.380Z,0
2017-04-14T02:36:10.480Z,0
2017-04-14T02:37:10.708Z,0
2017-04-14T02:38:10.321Z,0
2017-04-14T02:39:10.358Z,0
2017-04-14T02:40:10.685Z,0
2017-04-14T02:41:10.257Z,0
2017-04-14T02:42:10.603Z,0
2017-04-14T02:43:10.241Z,0
2017-04-14T02:44:10.272Z,0
2017-04-14T02:45:10.161Z,0
2017-04-14T02:46:09.801Z,0
2017-04-14T02:47:10.552Z,0
2017-04-14T02:48:09.790Z,0
2017-04-14T02:49:10.048Z,0
2017-04-14T02:50:10.520Z,0
2017-04-14T02:51:10.004Z,0
2017-04-14T02:52:09.362Z,0
2017-04-14T02:53:10.272Z,0
2017-04-14T02:54:09.942Z,0
2017-04-14T02:55:09.924Z,0
2017-04-14T02:56:10.273Z,0
2017-04-14T02:57:10.190Z,0
2017-04-14T02:58:09.902Z,0
2017-04-14T02:59:09.822Z,0
2017-04-14T03:00:10.213Z,0
2017-04-14T03:01:09.796Z,0
2017-04-14T03:02:10.061Z,0
2017-04-14T03:03:10.028Z,0
2017-04-14T03:04:10.014Z,0
2017-04-14T03:05:09.992Z,0
2017-04-14T03:06:09.967Z,0
2017-04-14T03:07:09.957Z,0
2017-04-14T03:08:09.923Z,0
2017-04-14T03:09:09.285Z,0
2017-04-14T03:10:09.862Z,0
2017-04-14T03:11:09.552Z,0
2017-04-14T03:12:09.853Z,0
2017-04-14T03:13:09.828Z,0
2017-04-14T03:14:09.783Z,0
2017-04-14T03:15:09.763Z,0
2017-04-14T03:16:09.737Z,0
2017-04-14T03:17:09.721Z,0
2017-04-14T03:18:09.692Z,0
2017-04-14T03:19:09.041Z,0
2017-04-14T03:20:09.359Z,0
2017-04-14T03:21:09.303Z,0
2017-04-14T03:22:09.289Z,0
2017-04-14T03:23:09.285Z,0
2017-04-14T03:24:09.234Z,0
2017-04-14T03:25:09.522Z,0
2017-04-14T03:26:08.940Z,0
2017-04-14T03:27:09.172Z,0
2017-04-14T03:28:08.858Z,0
2017-04-14T03:29:09.445Z,0
2017-04-14T03:30:09.112Z,0
2017-04-14T03:31:08.783Z,0
2017-04-14T03:32:09.372Z,0
2017-04-14T03:33:08.733Z,0
2017-04-14T03:34:09.333Z,0
2017-04-14T03:35:08.982Z,0
2017-04-14T03:36:09.273Z,0
2017-04-14T03:37:09.243Z,0
2017-04-14T03:38:08.922Z,0
2017-04-14T03:39:08.589Z,0
2017-04-14T03:40:08.568Z,0
2017-04-14T03:41:08.841Z,0
2017-04-14T03:42:08.846Z,0
2017-04-14T03:43:08.815Z,0
2017-04-14T03:44:09.110Z,0
2017-04-14T03:45:08.564Z,0
2017-04-14T03:46:08.473Z,0
2017-04-14T03:47:09.015Z,0
2017-04-14T03:48:08.690Z,0
2017-04-14T03:49:08.963Z,0
2017-04-14T03:50:08.963Z,0
2017-04-14T03:51:08.371Z,0
2017-04-14T03:52:08.585Z,0
2017-04-14T03:53:08.365Z,0
2017-04-14T03:54:08.850Z,0
2017-04-14T03:55:08.296Z,0
2017-04-14T03:56:08.513Z,0
2017-04-14T03:57:08.175Z,0
2017-04-14T03:58:08.463Z,0
2017-04-14T03:59:08.440Z,0
2017-04-14T04:00:08.773Z,0
2017-04-14T04:01:08.392Z,0
2017-04-14T04:02:08.783Z,0
2017-04-14T04:03:08.657Z,0
2017-04-14T04:04:08.623Z,4
2017-04-14T04:05:08.295Z,4
2017-04-14T04:06:07.964Z,0
2017-04-14T04:07:08.242Z,4
2017-04-14T04:08:08.014Z,4
2017-04-14T04:09:07.885Z,4
2017-04-14T04:10:08.288Z,4
2017-04-14T04:11:08.143Z,4
2017-04-14T04:12:07.591Z,8
2017-04-14T04:13:07.489Z,4
2017-04-14T04:14:07.782Z,8
2017-04-14T04:15:07.543Z,12
2017-04-14T04:16:07.792Z,12
2017-04-14T04:17:07.704Z,12
2017-04-14T04:18:07.992Z,16
2017-04-14T04:19:07.961Z,16
2017-04-14T04:20:07.624Z,20
2017-04-14T04:21:07.929Z,24
2017-04-14T04:22:08.253Z,28
2017-04-14T04:23:07.973Z,32
2017-04-14T04:24:08.187Z,36
2017-04-14T04:25:07.912Z,40
2017-04-14T04:26:07.832Z,44
2017-04-14T04:27:08.103Z,48
2017-04-14T04:28:07.774Z,56
2017-04-14T04:29:08.113Z,64
2017-04-14T04:30:07.708Z,72
2017-04-14T04:31:08.043Z,76
2017-04-14T04:32:07.658Z,88
2017-04-14T04:33:07.633Z,100
2017-04-14T04:34:07.621Z,108
2017-04-14T04:35:07.632Z,120
2017-04-14T04:36:07.568Z,132
2017-04-14T04:37:07.855Z,144
2017-04-14T04:38:07.536Z,156
2017-04-14T04:39:07.513Z,172
2017-04-14T04:40:07.481Z,184
2017-04-14T04:41:07.790Z,204
2017-04-14T04:42:07.443Z,220
2017-04-14T04:43:07.404Z,240
2017-04-14T04:44:07.675Z,264
2017-04-14T04:45:07.643Z,284
2017-04-14T04:46:07.022Z,308
2017-04-14T04:47:07.305Z,324
2017-04-14T04:48:07.614Z,348
2017-04-14T04:49:07.328Z,372
2017-04-14T04:50:07.265Z,400
2017-04-14T04:51:07.334Z,424
2017-04-14T04:52:07.202Z,448
2017-04-14T04:53:07.469Z,476
2017-04-14T04:54:06.533Z,504
2017-04-14T04:55:07.427Z,536
2017-04-14T04:56:07.113Z,556
2017-04-14T04:57:07.383Z,576
2017-04-14T04:58:07.362Z,604
2017-04-14T04:59:07.355Z,632
2017-04-14T05:00:07.395Z,672
2017-04-14T05:01:06.992Z,724
2017-04-14T05:02:06.662Z,772
2017-04-14T05:03:06.664Z,812
2017-04-14T05:04:06.913Z,844
2017-04-14T05:05:06.993Z,864
2017-04-14T05:06:06.552Z,884
2017-04-14T05:07:07.153Z,924
2017-04-14T05:08:06.237Z,964
2017-04-14T05:09:07.109Z,1024
2017-04-14T05:10:07.093Z,1096
2017-04-14T05:11:06.762Z,1148
2017-04-14T05:12:07.033Z,1192
2017-04-14T05:13:06.394Z,1232
2017-04-14T05:14:06.452Z,1256
2017-04-14T05:15:06.958Z,1320
2017-04-14T05:16:06.358Z,1360
2017-04-14T05:17:06.606Z,1368
2017-04-14T05:18:06.289Z,1420
2017-04-14T05:19:06.306Z,1488
2017-04-14T05:20:06.646Z,1532
2017-04-14T05:21:06.815Z,1576
2017-04-14T05:22:06.585Z,1624
2017-04-14T05:23:06.484Z,1660
2017-04-14T05:24:06.164Z,1664
2017-04-14T05:25:06.822Z,1656
2017-04-14T05:26:06.693Z,1676
2017-04-14T05:27:06.166Z,1796
2017-04-14T05:28:06.365Z,1892
2017-04-14T05:29:06.185Z,1952
2017-04-14T05:30:06.372Z,2004
2017-04-14T05:31:06.044Z,2048
2017-04-14T05:32:06.253Z,2084
2017-04-14T05:33:06.245Z,2056
2017-04-14T05:34:06.524Z,2180
2017-04-14T05:35:06.492Z,2256
2017-04-14T05:36:06.183Z,2308
2017-04-14T05:37:06.154Z,2348
2017-04-14T05:38:06.434Z,2380
2017-04-14T05:39:06.104Z,2444
2017-04-14T05:40:06.482Z,2492
2017-04-14T05:41:06.053Z,2568
2017-04-14T05:42:06.354Z,2648
2017-04-14T05:43:05.690Z,2688
2017-04-14T05:44:05.684Z,2724
2017-04-14T05:45:05.953Z,2756
2017-04-14T05:46:05.624Z,2776
2017-04-14T05:47:06.241Z,2812
2017-04-14T05:48:06.276Z,2856
2017-04-14T05:49:05.553Z,2884
2017-04-14T05:50:06.138Z,2968
2017-04-14T05:51:06.178Z,3052
2017-04-14T05:52:05.490Z,3100
2017-04-14T05:53:05.770Z,3196
2017-04-14T05:54:05.446Z,3280
2017-04-14T05:55:06.183Z,3340
2017-04-14T05:56:05.403Z,3384
2017-04-14T05:57:05.686Z,3444
2017-04-14T05:58:05.668Z,3492
2017-04-14T05:59:05.624Z,3512
2017-04-14T06:00:06.042Z,3620
2017-04-14T06:01:05.585Z,3672
2017-04-14T06:02:05.582Z,3768
2017-04-14T06:03:05.254Z,3860
2017-04-14T06:04:05.830Z,3944
2017-04-14T06:05:05.485Z,4044
2017-04-14T06:06:05.462Z,4128
2017-04-14T06:07:05.443Z,4160
2017-04-14T06:08:05.455Z,4236
2017-04-14T06:09:05.095Z,4332
2017-04-14T06:10:05.072Z,4372
2017-04-14T06:11:05.042Z,4408
2017-04-14T06:12:05.682Z,4416
2017-04-14T06:13:05.623Z,4472
2017-04-14T06:14:05.637Z,4544
2017-04-14T06:15:05.011Z,4620
2017-04-14T06:16:05.290Z,4688
2017-04-14T06:17:05.522Z,4764
2017-04-14T06:18:05.309Z,4740
2017-04-14T06:19:05.485Z,4792
2017-04-14T06:20:05.243Z,4864
2017-04-14T06:21:05.443Z,4856
2017-04-14T06:22:05.106Z,4892
2017-04-14T06:23:05.413Z,4972
2017-04-14T06:24:05.174Z,5012
2017-04-14T06:25:05.044Z,5056
2017-04-14T06:26:05.134Z,5164
2017-04-14T06:27:04.995Z,5252
2017-04-14T06:28:05.085Z,5320
2017-04-14T06:29:05.301Z,5312
2017-04-14T06:30:04.629Z,5332
2017-04-14T06:31:04.601Z,5388
2017-04-14T06:32:05.205Z,5392
2017-04-14T06:33:04.874Z,5536
2017-04-14T06:34:05.203Z,5632
2017-04-14T06:35:05.142Z,5776
2017-04-14T06:36:05.110Z,5920
2017-04-14T06:37:04.803Z,6168
2017-04-14T06:38:05.064Z,6456
2017-04-14T06:39:05.053Z,7120
2017-04-14T06:40:04.122Z,8176
2017-04-14T06:41:04.751Z,8764
2017-04-14T06:42:05.006Z,9344
2017-04-14T06:43:04.952Z,9296
2017-04-14T06:44:04.633Z,8436
2017-04-14T06:45:04.624Z,8792
2017-04-14T06:46:04.486Z,8712
2017-04-14T06:47:04.243Z,8600
2017-04-14T06:48:04.555Z,8532
2017-04-14T06:49:04.832Z,8476
2017-04-14T06:50:04.493Z,8800
2017-04-14T06:51:04.494Z,12216
2017-04-14T06:52:03.833Z,34400
2017-04-14T06:53:04.446Z,57536
2017-04-14T06:54:04.493Z,47840
2017-04-14T06:55:04.714Z,42912
2017-04-14T06:56:04.811Z,40128
2017-04-14T06:57:04.761Z,24416
2017-04-14T06:58:04.783Z,58976
2017-04-14T06:59:04.316Z,70624
2017-04-14T07:00:04.331Z,71680
2017-04-14T07:01:04.327Z,76864
2017-04-14T07:02:04.582Z,77344
2017-04-14T07:03:04.663Z,61440
2017-04-14T07:04:04.268Z,73312
2017-04-14T07:05:04.252Z,84192
2017-04-14T07:06:04.712Z,82464
2017-04-14T07:07:04.640Z,80544
2017-04-14T07:08:04.193Z,62240
2017-04-14T07:09:04.533Z,76416
2017-04-14T07:10:03.842Z,80160
2017-04-14T07:11:04.603Z,44256
2017-04-14T07:12:04.520Z,6204
2017-04-14T07:13:04.101Z,5320
2017-04-14T07:14:03.772Z,4556
2017-04-14T07:15:03.783Z,4148
2017-04-14T07:16:04.363Z,3832
2017-04-14T07:17:03.743Z,3560
2017-04-14T07:18:04.354Z,3336
2017-04-14T07:19:03.704Z,3172
2017-04-14T07:20:03.702Z,3032
2017-04-14T07:21:04.309Z,2924
2017-04-14T07:22:03.664Z,2868
2017-04-14T07:23:03.615Z,2892
2017-04-14T07:24:04.223Z,2900
2017-04-14T07:25:03.892Z,2944
2017-04-14T07:26:03.908Z,2996
2017-04-14T07:27:04.274Z,3036
2017-04-14T07:28:03.931Z,3020
2017-04-14T07:29:04.176Z,2980
2017-04-14T07:30:03.842Z,2960
2017-04-14T07:31:04.157Z,2980
2017-04-14T07:32:04.171Z,3068
2017-04-14T07:33:04.140Z,3108
2017-04-14T07:34:04.038Z,3116
2017-04-14T07:35:04.011Z,3188
2017-04-14T07:36:04.112Z,3328
2017-04-14T07:37:03.681Z,3476
2017-04-14T07:38:03.672Z,3812
2017-04-14T07:39:03.321Z,4084
2017-04-14T07:40:03.921Z,4204
2017-04-14T07:41:04.002Z,4320
2017-04-14T07:42:03.575Z,4560
2017-04-14T07:43:03.237Z,4468
2017-04-14T07:44:02.943Z,4364
2017-04-14T07:45:03.223Z,4276
2017-04-14T07:46:03.954Z,4232
2017-04-14T07:47:03.474Z,4120
2017-04-14T07:48:03.570Z,4080
2017-04-14T07:49:03.126Z,4032
2017-04-14T07:50:03.422Z,4000
2017-04-14T07:51:03.105Z,3828
2017-04-14T07:52:03.752Z,3692
2017-04-14T07:53:03.674Z,3568
2017-04-14T07:54:03.322Z,3456
2017-04-14T07:55:03.313Z,3344
2017-04-14T07:56:03.643Z,3236
2017-04-14T07:57:03.295Z,3152
2017-04-14T07:58:03.626Z,3116
2017-04-14T07:59:03.264Z,3108
2017-04-14T08:00:03.201Z,3076
2017-04-14T08:01:03.511Z,3048
2017-04-14T08:02:03.501Z,3020
2017-04-14T08:03:03.163Z,3040
2017-04-14T08:04:03.191Z,3036
2017-04-14T08:05:03.122Z,3000
2017-04-14T08:06:03.234Z,2988
2017-04-14T08:07:03.065Z,2984
2017-04-14T08:08:02.794Z,2948
2017-04-14T08:09:03.332Z,2920
2017-04-14T08:10:02.765Z,2888
2017-04-14T08:11:03.010Z,2900
2017-04-14T08:12:03.043Z,2892
2017-04-14T08:13:02.933Z,2908
2017-04-14T08:14:03.322Z,2960
2017-04-14T08:15:02.900Z,3024
2017-04-14T08:16:03.012Z,3060
2017-04-14T08:17:02.865Z,3068
2017-04-14T08:18:02.934Z,3084
2017-04-14T08:19:02.843Z,3084
2017-04-14T08:20:02.801Z,3048
2017-04-14T08:21:02.900Z,3032
2017-04-14T08:22:03.191Z,3012
2017-04-14T08:23:02.825Z,3024
2017-04-14T08:24:03.012Z,3048
2017-04-14T08:25:02.703Z,3044
2017-04-14T08:26:02.673Z,3096
2017-04-14T08:27:02.648Z,3132
2017-04-14T08:28:02.942Z,3148
2017-04-14T08:29:02.636Z,3144
2017-04-14T08:30:02.758Z,3160
2017-04-14T08:31:02.753Z,3140
2017-04-14T08:32:02.864Z,3104
2017-04-14T08:33:02.914Z,3084
2017-04-14T08:34:02.516Z,3064
2017-04-14T08:35:02.803Z,3076
2017-04-14T08:36:02.566Z,3088
2017-04-14T08:37:02.753Z,3108
2017-04-14T08:38:02.429Z,3128
2017-04-14T08:39:02.872Z,3164
2017-04-14T08:40:02.465Z,3224
2017-04-14T08:41:02.785Z,3268
2017-04-14T08:42:02.756Z,3292
2017-04-14T08:43:02.655Z,3300
2017-04-14T08:44:02.602Z,3296
2017-04-14T08:45:02.825Z,3276
2017-04-14T08:46:02.554Z,3264
2017-04-14T08:47:02.268Z,3244
2017-04-14T08:48:02.655Z,3236
2017-04-14T08:49:02.615Z,3204
2017-04-14T08:50:02.486Z,3220
2017-04-14T08:51:02.457Z,3244
2017-04-14T08:52:02.461Z,3368
2017-04-14T08:53:02.554Z,3492
2017-04-14T08:54:02.502Z,3492
2017-04-14T08:55:02.395Z,3580
2017-04-14T08:56:01.732Z,3552
2017-04-14T08:57:02.039Z,3500
2017-04-14T08:58:02.002Z,3472
2017-04-14T08:59:02.283Z,3460
2017-04-14T09:00:02.272Z,3440
2017-04-14T09:01:02.263Z,3452
2017-04-14T09:02:02.224Z,3420
2017-04-14T09:03:02.220Z,3364
2017-04-14T09:04:02.313Z,3308
2017-04-14T09:05:02.154Z,3252
2017-04-14T09:06:01.230Z,3188
2017-04-14T09:07:02.135Z,3164
2017-04-14T09:08:02.086Z,3156
2017-04-14T09:09:01.470Z,3164
2017-04-14T09:10:01.762Z,3140
2017-04-14T09:11:01.731Z,3092
2017-04-14T09:12:01.802Z,3036
2017-04-14T09:13:02.008Z,2980
2017-04-14T09:14:01.115Z,2908
2017-04-14T09:15:01.983Z,2828
2017-04-14T09:16:02.060Z,2776
2017-04-14T09:17:01.613Z,2752
2017-04-14T09:18:01.619Z,2744
2017-04-14T09:19:01.605Z,2740
2017-04-14T09:20:01.875Z,2724
2017-04-14T09:21:01.226Z,2708
2017-04-14T09:22:01.826Z,2704
2017-04-14T09:23:01.485Z,2680
2017-04-14T09:24:01.776Z,2664
2017-04-14T09:25:01.764Z,2660
2017-04-14T09:26:01.753Z,2676
2017-04-14T09:27:01.404Z,2680
2017-04-14T09:28:01.374Z,2692
2017-04-14T09:29:01.366Z,2688
2017-04-14T09:30:01.053Z,2656
2017-04-14T09:31:01.663Z,2564
2017-04-14T09:32:01.606Z,2568
2017-04-14T09:33:01.603Z,2552
2017-04-14T09:34:01.603Z,2584
2017-04-14T09:35:00.964Z,2600
2017-04-14T09:36:01.484Z,2568
2017-04-14T09:37:01.544Z,2488
2017-04-14T09:38:00.664Z,2444
2017-04-14T09:39:01.171Z,2420
2017-04-14T09:40:01.205Z,2404
2017-04-14T09:41:01.427Z,2404
2017-04-14T09:42:01.395Z,2408
2017-04-14T09:43:00.823Z,2408
2017-04-14T09:44:00.507Z,2412
2017-04-14T09:45:01.155Z,2396
2017-04-14T09:46:01.324Z,2436
2017-04-14T09:47:01.343Z,2480
2017-04-14T09:48:00.683Z,2544
2017-04-14T09:49:01.274Z,2584
2017-04-14T09:50:00.945Z,2624
2017-04-14T09:51:01.118Z,2656
2017-04-14T09:52:00.395Z,2664
2017-04-14T09:53:00.902Z,2648
2017-04-14T09:54:00.862Z,2620
2017-04-14T09:55:00.824Z,2608
2017-04-14T09:56:01.124Z,2572
2017-04-14T09:57:00.891Z,2564
2017-04-14T09:58:01.089Z,2584
2017-04-14T09:59:01.072Z,2588
2017-04-14T10:00:00.761Z,2564
2017-04-14T10:01:00.453Z,2552
2017-04-14T10:02:01.003Z,2548
2017-04-14T10:03:00.974Z,2580
2017-04-14T10:04:00.394Z,2604
2017-04-14T10:05:00.323Z,2592
2017-04-14T10:06:00.415Z,2552
2017-04-14T10:07:00.602Z,2492
2017-04-14T10:08:00.883Z,2400
2017-04-14T10:09:00.256Z,2304
2017-04-14T10:10:00.244Z,2224
2017-04-14T10:11:00.569Z,2164
2017-04-14T10:12:00.784Z,2148
2017-04-14T10:13:00.552Z,2152
2017-04-14T10:14:00.753Z,2180
2017-04-14T10:15:00.440Z,2188
2017-04-14T10:16:00.714Z,2188
2017-04-14T10:17:00.694Z,2220
2017-04-14T10:18:00.469Z,2252
2017-04-14T10:19:00.650Z,2256
2017-04-14T10:20:00.633Z,2272
2017-04-14T10:21:00.613Z,2292
2017-04-14T10:22:00.583Z,2328
2017-04-14T10:23:00.271Z,2380
2017-04-14T10:24:00.283Z,2440
2017-04-14T10:25:00.248Z,2480
2017-04-14T10:26:00.508Z,2524
2017-04-14T10:27:00.533Z,2624
2017-04-14T10:28:00.485Z,2728
2017-04-14T10:29:00.461Z,2804
2017-04-14T10:30:00.240Z,2844
2017-04-14T10:31:00.207Z,2880
2017-04-14T10:32:00.404Z,2900
2017-04-14T10:33:00.085Z,2924
2017-04-14T10:34:00.067Z,2952
2017-04-14T10:35:00.338Z,2964
2017-04-14T10:36:00.115Z,2964
2017-04-14T10:36:59.985Z,2928
2017-04-14T10:38:00.273Z,2940
2017-04-14T10:39:00.278Z,2948
2017-04-14T10:40:00.229Z,2952
2017-04-14T10:40:59.904Z,2916
2017-04-14T10:42:00.218Z,2948
2017-04-14T10:43:00.166Z,3028
2017-04-14T10:44:00.150Z,3116
2017-04-14T10:45:00.157Z,3148
2017-04-14T10:45:59.869Z,3184
2017-04-14T10:47:00.077Z,3196
2017-04-14T10:48:00.074Z,3240
2017-04-14T10:49:00.065Z,3292
2017-04-14T10:50:00.006Z,3356
2017-04-14T10:51:00.079Z,3452
2017-04-14T10:51:59.365Z,3536
2017-04-14T10:52:59.971Z,3576
2017-04-14T10:53:59.955Z,3588
2017-04-14T10:54:59.946Z,3632
2017-04-14T10:55:59.914Z,3700
2017-04-14T10:56:59.893Z,3712
2017-04-14T10:57:59.896Z,3688
2017-04-14T10:58:59.867Z,3636
2017-04-14T10:59:59.827Z,3584
2017-04-14T11:00:59.845Z,3524
2017-04-14T11:01:59.784Z,3464
2017-04-14T11:02:59.807Z,3452
2017-04-14T11:03:59.756Z,3480
2017-04-14T11:04:59.734Z,3516
2017-04-14T11:05:59.225Z,3552
2017-04-14T11:06:59.671Z,3596
2017-04-14T11:07:59.523Z,3616
2017-04-14T11:08:59.032Z,3608
2017-04-14T11:09:59.634Z,3640
2017-04-14T11:10:59.298Z,3676
2017-04-14T11:11:59.582Z,3720
2017-04-14T11:12:59.257Z,3800
2017-04-14T11:13:59.544Z,3852
2017-04-14T11:14:59.523Z,3884
2017-04-14T11:15:59.533Z,3884
2017-04-14T11:16:59.185Z,3868
2017-04-14T11:17:59.167Z,3852
2017-04-14T11:18:59.176Z,3872
2017-04-14T11:19:59.178Z,3920
2017-04-14T11:20:58.835Z,3976
2017-04-14T11:21:59.385Z,4060
2017-04-14T11:22:58.757Z,4156
2017-04-14T11:23:59.037Z,4228
2017-04-14T11:24:59.323Z,4300
2017-04-14T11:25:59.035Z,4364
2017-04-14T11:26:59.304Z,4424
2017-04-14T11:27:58.984Z,4500
2017-04-14T11:28:59.235Z,4516
2017-04-14T11:29:58.945Z,4468
2017-04-14T11:30:58.892Z,4384
2017-04-14T11:31:58.585Z,4320
2017-04-14T11:32:58.967Z,4264
2017-04-14T11:33:58.846Z,4208
2017-04-14T11:34:59.164Z,4140
2017-04-14T11:35:59.145Z,4144
2017-04-14T11:36:59.105Z,4180
2017-04-14T11:37:58.554Z,4216
2017-04-14T11:38:59.047Z,4248
2017-04-14T11:39:59.038Z,4296
2017-04-14T11:40:59.167Z,4344
2017-04-14T11:41:59.063Z,4360
2017-04-14T11:42:58.773Z,4392
2017-04-14T11:43:58.973Z,4392
2017-04-14T11:44:58.624Z,4296
2017-04-14T11:45:58.754Z,4228
2017-04-14T11:46:58.321Z,4100
2017-04-14T11:47:58.882Z,4028
2017-04-14T11:48:58.555Z,3984
2017-04-14T11:49:58.530Z,3960
2017-04-14T11:50:58.822Z,3912
2017-04-14T11:51:58.186Z,3896
2017-04-14T11:52:58.783Z,3932
2017-04-14T11:53:58.772Z,3992
2017-04-14T11:54:58.128Z,4040
2017-04-14T11:55:58.485Z,4176
2017-04-14T11:56:58.428Z,4292
2017-04-14T11:57:58.086Z,4320
2017-04-14T11:58:58.354Z,4200
2017-04-14T11:59:58.036Z,4280
2017-04-14T12:00:58.616Z,4472
2017-04-14T12:01:58.015Z,4420
2017-04-14T12:02:58.599Z,4296
2017-04-14T12:03:58.264Z,4192
2017-04-14T12:04:58.565Z,4132
2017-04-14T12:05:58.224Z,4120
2017-04-14T12:06:58.274Z,4112
2017-04-14T12:07:58.502Z,4140
2017-04-14T12:08:58.479Z,4144
2017-04-14T12:09:58.456Z,4152
2017-04-14T12:10:58.451Z,4188
2017-04-14T12:11:58.424Z,4300
2017-04-14T12:12:58.089Z,4452
2017-04-14T12:13:58.379Z,4736
2017-04-14T12:14:58.054Z,5080
2017-04-14T12:15:58.035Z,5464
2017-04-14T12:16:58.323Z,5828
2017-04-14T12:17:58.007Z,6008
2017-04-14T12:18:58.008Z,6100
2017-04-14T12:19:58.268Z,5744
2017-04-14T12:20:57.949Z,5928
2017-04-14T12:21:57.615Z,5908
2017-04-14T12:22:58.210Z,5844
2017-04-14T12:23:58.235Z,5732
2017-04-14T12:24:58.162Z,5544
2017-04-14T12:25:58.153Z,5440
2017-04-14T12:26:58.123Z,5504
2017-04-14T12:27:57.808Z,5696
2017-04-14T12:28:58.107Z,5616
2017-04-14T12:29:58.070Z,5600
2017-04-14T12:30:58.066Z,5424
2017-04-14T12:31:58.027Z,5280
2017-04-14T12:32:58.031Z,5200
2017-04-14T12:33:58.019Z,5160
2017-04-14T12:34:58.016Z,5108
2017-04-14T12:35:57.779Z,5012
2017-04-14T12:36:57.950Z,4860
2017-04-14T12:37:57.935Z,4492
2017-04-14T12:38:57.927Z,4364
2017-04-14T12:39:58.681Z,4056
2017-04-14T12:40:58.574Z,4164
2017-04-14T12:41:57.871Z,4268
2017-04-14T12:42:57.532Z,4136
2017-04-14T12:43:57.819Z,3784
2017-04-14T12:44:57.811Z,3716
2017-04-14T12:45:57.192Z,3732
2017-04-14T12:46:57.779Z,3676
2017-04-14T12:47:57.764Z,3660
2017-04-14T12:48:57.425Z,3652
2017-04-14T12:49:57.710Z,3592
2017-04-14T12:50:57.376Z,3572
2017-04-14T12:51:57.657Z,3548
2017-04-14T12:52:57.348Z,3488
2017-04-14T12:53:57.657Z,3404
2017-04-14T12:54:57.297Z,3352
2017-04-14T12:55:57.095Z,3436
2017-04-14T12:56:57.579Z,3552
2017-04-14T12:57:57.566Z,3628
2017-04-14T12:58:57.270Z,3692
2017-04-14T12:59:57.226Z,3468
2017-04-14T13:00:57.499Z,3388
2017-04-14T13:01:57.505Z,3528
2017-04-14T13:02:57.464Z,3660
2017-04-14T13:03:57.434Z,3696
2017-04-14T13:04:57.429Z,3776
2017-04-14T13:05:57.103Z,3788
2017-04-14T13:06:57.384Z,3788
2017-04-14T13:07:57.391Z,3796
2017-04-14T13:08:57.353Z,3772
2017-04-14T13:09:57.355Z,3736
2017-04-14T13:10:57.332Z,3688
2017-04-14T13:11:56.680Z,3480
2017-04-14T13:12:56.965Z,3300
2017-04-14T13:13:56.393Z,3088
2017-04-14T13:14:57.250Z,3044
2017-04-14T13:15:56.943Z,3024
2017-04-14T13:16:56.632Z,2936
2017-04-14T13:17:57.012Z,2888
2017-04-14T13:18:56.891Z,2912
2017-04-14T13:19:56.824Z,2908
2017-04-14T13:20:56.822Z,2784
2017-04-14T13:21:56.839Z,2640
2017-04-14T13:22:57.181Z,2568
2017-04-14T13:23:56.838Z,2544
2017-04-14T13:24:57.046Z,2548
2017-04-14T13:25:56.722Z,2500
2017-04-14T13:26:56.992Z,2416
2017-04-14T13:27:56.712Z,2328
2017-04-14T13:28:56.357Z,2268
2017-04-14T13:29:56.663Z,2248
2017-04-14T13:30:56.326Z,2260
2017-04-14T13:31:56.904Z,2256
2017-04-14T13:32:56.606Z,2248
2017-04-14T13:33:56.271Z,2236
2017-04-14T13:34:56.851Z,2252
2017-04-14T13:35:56.831Z,2288
2017-04-14T13:36:56.841Z,2324
2017-04-14T13:37:56.176Z,2424
2017-04-14T13:38:56.801Z,2476
2017-04-14T13:39:56.471Z,2520
2017-04-14T13:40:56.743Z,2488
2017-04-14T13:41:56.723Z,2604
2017-04-14T13:42:56.722Z,2660
2017-04-14T13:43:56.711Z,2704
2017-04-14T13:44:56.672Z,2696